Index of /

[ICO]NameLast modifiedSizeDescription

[VID]Friction Training 1M Comm.mp42018-08-16 04:50 7.5M 
[VID]01 Lynx Sizzle Reel 15sec-HD.mp42018-08-22 07:06 8.5M 
[VID]02 Curtsy Lunge BW-HD.mp42018-08-22 07:06 30M 
[VID]01 Accessories Introduction-HD.mp42018-08-22 07:06 17M 
[VID]01 Tri Core AM-HD.mp42018-08-22 07:06 30M 
[VID]01 Skier Slide Out BW-HD.mp42018-08-22 07:06 33M 
[VID]01 Sun Citation Slide Out BM-HD.mp42018-08-22 07:06 31M 
[VID]01 Twister Push Up IM-HD.mp42018-08-22 07:06 36M 
[VID]02 Accessories Clean & Press-HD.mp42018-08-22 07:06 41M 
[VID]02 Lynx Sizzle Reel 30sec-HD.mp42018-08-22 07:06 17M 
[VID]01 Alternating Curtsies IF-HD.mp42018-08-22 07:06 33M 
[VID]02 Skier Slide Out BM-HD.mp42018-08-22 07:06 27M 
[VID]02 L Sit Hamstring Curl IM-HD.mp42018-08-22 07:07 43M 
[VID]03 Breakdown Climber IM-HD.mp42018-08-22 07:07 37M 
[VID]03 Accessories Kettle Bell Swing-HD.mp42018-08-22 07:07 37M 
[VID]02 Tri Fly Combinations AM-HD.mp42018-08-22 07:07 29M 
[VID]03 Fly Climbers AM-HD.mp42018-08-22 07:07 28M 
[VID]02 Lynx Lunge IF-HD.mp42018-08-22 07:07 40M 
[VID]02 Lynx Jack AF-HD.mp42018-08-22 07:07 32M 
[VID]01 Running Skater AF-HD.mp42018-08-22 07:07 44M 
[VID]03 Lynx Squat BW-HD.mp42018-08-22 07:07 38M 
[VID]04 Accessories Basketball Crossover-HD.mp42018-08-22 07:07 36M 
[VID]04 Oblique Knee Tuck AF-HD.mp42018-08-22 07:07 33M 
[VID]04 The Core Fly AM-HD.mp42018-08-22 07:07 30M 
[VID]04 Side Lunge BW-HD.mp42018-08-22 07:07 32M 
[VID]04 Lynx Sizzle Reel 1min30sec-HD.mp42018-08-22 07:07 51M 
[VID]05 Back Lunge BM-HD.mp42018-08-22 07:07 31M 
[VID]05 Fly & Crunch AM-HD.mp42018-08-22 07:07 32M 
[VID]05 Accessories Ball Toss Push Up-HD.mp42018-08-22 07:07 30M 
[VID]05 Front Lunge BW-HD.mp42018-08-22 07:08 24M 
[VID]05 Fly Away IM-HD.mp42018-08-22 07:08 38M 
[VID]06 Fly Clap AM-HD.mp42018-08-22 07:08 30M 
[VID]07 Archer Push Up Knee Cross IM-HD.mp42018-08-22 07:08 17M 
[VID]06 Accessories Weighted Mountain Climbers-HD.mp42018-08-22 07:08 42M 
[VID]06 Front Lunge BM-HD.mp42018-08-22 07:08 33M 
[VID]06 Super Swimmers IF-HD.mp42018-08-22 07:08 38M 
[VID]04 Bridge Climbers IF-HD.mp42018-08-22 07:08 35M 
[VID]08 Bridge Jacks AF-HD.mp42018-08-22 07:08 23M 
[VID]07 L Slides AM-HD.mp42018-08-22 07:08 29M 
[VID]08 Breakdown Knee Tuck AM-HD.mp42018-08-22 07:08 29M 
[VID]07 Plank Twist IF-HD.mp42018-08-22 07:08 34M 
[VID]07 Accessories Renegade Push Up-HD.mp42018-08-22 07:08 44M 
[VID]08 Hamstring Bridge Curl BW-HD.mp42018-08-22 07:08 29M 
[VID]08 Accessories Weighted Lat Pulls-HD.mp42018-08-22 07:08 46M 
[VID]08 Dynamic Lateral Lunge IF-HD.mp42018-08-22 07:08 39M 
[VID]09 Burpee Squat BW-HD.mp42018-08-22 07:09 34M 
[VID]06 Wrist Mobility and Stretch Mobility-HD.mp42018-08-22 07:09 65M 
[VID]08 Side Lunge BM-HD.mp42018-08-22 07:09 36M 
[VID]09 Ham Sandwich AM-HD.mp42018-08-22 07:09 30M 
[VID]09 Accessories Body Bar Mountain Climbers-HD.mp42018-08-22 07:09 39M 
[VID]09 3 Vector Lunge IM-HD.mp42018-08-22 07:09 36M 
[VID]10 Jack Flies AM-HD.mp42018-08-22 07:09 25M 
[VID]10 Wiper Slide Outs IM-HD.mp42018-08-22 07:09 21M 
[VID]10 Hamstring Bridge Curl BM-HD.mp42018-08-22 07:09 38M 
[VID]10 Lynx Jacks BW-HD.mp42018-08-22 07:09 25M 
[VID]10 Reach Throughs IF-HD.mp42018-08-22 07:09 36M 
[VID]09 L SitV Out AF-HD.mp42018-08-22 07:09 29M 
[VID]10 Accessories Four Point Row-HD.mp42018-08-22 07:09 41M 
[VID]11 Accessories Archer’s Push Up with Row-HD.mp42018-08-22 07:09 41M 
[VID]09 Squat and Reach IF-HD.mp42018-08-22 07:09 30M 
[VID]11 Spider Wipe AM-HD.mp42018-08-22 07:09 33M 
[VID]08 One Two Lunge & Hop IM-HD.mp42018-08-22 07:10 34M 
[VID]11 Knee Tucks BW-HD.mp42018-08-22 07:10 37M 
[VID]11 Hamstring Slide Out BM-HD.mp42018-08-22 07:10 28M 
[VID]10 Wide Legged Pikes AF-HD.mp42018-08-22 07:10 34M 
[VID]12 180 Degree Squat To Lunge AF-HD.mp42018-08-22 07:10 29M 
[VID]11 Pulsating Running Lunge AF-HD.mp42018-08-22 07:10 34M 
[VID]11 Superman Push Up IM-HD.mp42018-08-22 07:10 27M 
[VID]12 Knee Crunch IF-HD.mp42018-08-22 07:10 31M 
[VID]11 Wax On Wax Off IF-HD.mp42018-08-22 07:10 37M 
[VID]12 Accessories Banded Plank Punch Out-HD.mp42018-08-22 07:10 43M 
[VID]12 Uni Climber AM-HD.mp42018-08-22 07:10 26M 
[VID]12 Mountain Climbers BW-HD.mp42018-08-22 07:10 28M 
[VID]12 Pendulum Push Up IM-HD.mp42018-08-22 07:10 34M 
[VID]12 Mountain Climber BM-HD.mp42018-08-22 07:10 40M 
[VID]13 360 Push Up AM-HD.mp42018-08-22 07:10 25M 
[VID]13 3 Point Burpee AF-HD.mp42018-08-22 07:10 33M 
[VID]13 Hamstring Slide Out BW-HD.mp42018-08-22 07:10 25M 
[VID]13 Hand Pike Crunch BM-HD.mp42018-08-22 07:11 23M 
[VID]13 Pointed Oblique Crunch IM-HD.mp42018-08-22 07:11 23M 
[VID]13 Accessories Weighted L Sit Slide Out-HD.mp42018-08-22 07:11 40M 
[VID]13 Pike Kicks IF-HD.mp42018-08-22 07:11 31M 
[VID]14 Accessories Single Ball Knee Tucks-HD.mp42018-08-22 07:11 35M 
[VID]12 Free Fall Stretch Mobility-HD.mp42018-08-22 07:11 36M 
[VID]14 Curtsy Hop AF-HD.mp42018-08-22 07:11 32M 
[VID]14 Pike BM-HD.mp42018-08-22 07:11 30M 
[VID]14 Butterflies IF-HD.mp42018-08-22 07:11 39M 
[VID]14 Dead Lift Squat IM-HD.mp42018-08-22 07:11 35M 
[VID]14 Spider Slider AM-HD.mp42018-08-22 07:11 34M 
[VID]15 Oblique Twist BM-HD.mp42018-08-22 07:11 29M 
[VID]15 Accessories Pike with Shoulder Raise-HD.mp42018-08-22 07:11 34M 
[VID]15 Diamond Slider AM-HD.mp42018-08-22 07:11 36M 
[VID]16 Accessories Weighted Arm & Hammer-HD.mp42018-08-22 07:11 33M 
[VID]16 Oblique Twist BW-HD.mp42018-08-22 07:11 25M 
[VID]16 Windshield Wipers BM-HD.mp42018-08-22 07:11 27M 
[VID]16 Pistol Side Squat AM-HD.mp42018-08-22 07:12 29M 
[VID]15 Oblique Froggers IF-HD.mp42018-08-22 07:12 40M 
[VID]16 Cobra Reach & Pull AF-HD.mp42018-08-22 07:12 34M 
[VID]16 Pivoting Plank IF-HD.mp42018-08-22 07:12 33M 
[VID]17 Shuffle Push Up IM-HD.mp42018-08-22 07:12 19M 
[VID]17 Ab Rollout BM-HD.mp42018-08-22 07:12 37M 
[VID]17 Jump Slides AM-HD.mp42018-08-22 07:12 27M 
[VID]17 Windshield Wipers BW-HD.mp42018-08-22 07:12 28M 
[VID]17 Saw Cutter AF-HD.mp42018-08-22 07:12 34M 
[VID]18 Cannonball Push Up AF-HD.mp42018-08-22 07:12 26M 
[VID]19 Alternating Oblique Reach BM-HD.mp42018-08-22 07:12 26M 
[VID]17 Dynamic Pistols IF-HD.mp42018-08-22 07:12 41M 
[VID]19 Oblique Crunch BW-HD.mp42018-08-22 07:12 24M 
[VID]18 Dancing Lunge IF-HD.mp42018-08-22 07:12 37M 
[VID]18 Ab Rollout BW-HD.mp42018-08-22 07:12 30M 
[VID]19 Rotational Squat AM-HD.mp42018-08-22 07:12 26M 
[VID]19 Scissor Plank IF-HD.mp42018-08-22 07:12 37M 
[VID]19 Wax On Wax Off Push Up IM-HD.mp42018-08-22 07:12 22M 
[VID]20 Cobra Slideout BW-HD.mp42018-08-22 07:13 31M 
[VID]20 Reverse Plank Twister IM-HD.mp42018-08-22 07:13 31M 
[VID]20 Burpee Squat AF-HD.mp42018-08-22 07:13 39M 
[VID]20 Switch Stance Lunge AM-HD.mp42018-08-22 07:13 31M 
[VID]19 Transverse Mountain Climbers AF-HD.mp42018-08-22 07:13 36M 
[VID]21 Hand Pike Push Up BM-HD.mp42018-08-22 07:13 28M 
[VID]21 Iso Curtsy AM-HD.mp42018-08-22 07:13 26M 
[VID]15 Fighter’s Lunge AF-HD.mp42018-08-22 07:13 45M 
[VID]21 Supine Mountain Climbers AF-HD.mp42018-08-22 07:13 26M 
[VID]21 Single Pad Speed Skater IM-HD.mp42018-08-22 07:13 27M 
[VID]22 Pike Press Slide IM-HD.mp42018-08-22 07:13 28M 
[VID]22 Prone Oblique Crunch AF-HD.mp42018-08-22 07:13 27M 
[VID]22 Static Rotational Squat AM-HD.mp42018-08-22 07:13 29M 
[VID]22 Pendulum Chest Fly BM-HD.mp42018-08-22 07:13 30M 
[VID]22 Chest Fly BW-HD.mp42018-08-22 07:13 35M 
[VID]23 Chest Fly BM-HD.mp42018-08-22 07:13 32M 
[VID]24 Chest Fly Push Up BM-HD.mp42018-08-22 07:13 25M 
[VID]23 Scissor Squat AM-HD.mp42018-08-22 07:13 28M 
[VID]24 Dynamic Push Up AM-HD.mp42018-08-22 07:13 27M 
[VID]23 180 T’s AF-HD.mp42018-08-22 07:13 43M 
[VID]24 One Arm Slide Out BW-HD.mp42018-08-22 07:13 29M 
[VID]24 X Push Up IM-HD.mp42018-08-22 07:13 24M 
[VID]Friction Training 1M Comm-SD.mp42018-08-22 07:13 7.5M 
[VID]Coming Soon-HD.mp42018-08-22 07:13 19M 
[VID]24 Skater Sprints AF-HD.mp42018-08-22 07:14 35M 
[VID]23 Over Under Push Up IM-HD.mp42018-08-22 07:14 21M 
[VID]25 One Arm Slide Out BM-HD.mp42018-08-22 07:14 28M 
[VID]26 Rotational Push Up BM-HD.mp42018-08-22 07:14 27M 
[VID]25 Unicorn Kick Stand AF-HD.mp42018-08-22 07:14 25M 
[VID]Lynx Sizzle Reel 1min30sec-HD.mp42018-08-22 07:14 51M 
[VID]10 Hip Flexor Stretch Mobility-HD.mp42018-08-22 07:14 47M 
[VID]07 Hamstring Sit Up AF-HD.mp42018-08-22 07:14 46M 
[VID]11 Hip Opener Stretch Mobility-HD.mp42018-08-22 07:14 57M 
[VID]07 Shoulder Stretch Mobility-HD.mp42018-08-22 07:14 53M 
[VID]05 Lynx Slide Outs IF-HD.mp42018-08-22 07:15 39M 
[VID]04 Pendulum Knee Tuck IM-HD.mp42018-08-22 07:15 45M 
[VID]05 Flying X Push Up AF-HD.mp42018-08-22 07:15 40M 
[VID]04 Lynx Squat BM-HD.mp42018-08-22 07:15 38M 
[VID]02 Pigeon Stretch Mobility-HD.mp42018-08-22 07:15 38M 
[VID]04 Lower Back Stretch Mobility-HD.mp42018-08-22 07:15 102M 
[VID]Fat Burner-HD.mp42018-08-22 07:15 144M 
[VID]08 Abdominal Stretch Mobility-HD.mp42018-08-22 07:15 58M 
[VID]Why the Lynx Board 2.mp42018-08-22 07:15 176M 
[VID]High Intensity Interval Training (H.I.I.T.).mp42018-08-22 07:16 336M 

Apache/2.4.29 (Ubuntu) Server at video.lynxfitness.com Port 80